Terminal Aerodrome Forecast
Issued by NWS

Home | Current Version | Previous Version | Text Only | Print | Product List | Glossary On
Versions: 1 2 3 4 5 6 7 8 9 10 11 12 13 14 15
000
FTUS46 KEKA 312336
TAFUKI
TAF
KUKI 312336Z 0100/0124 34010G17KT P6SM SKC
     FM010200 31009KT P6SM SKC
     FM010400 00000KT P6SM SKC
     FM011800 VRB04KT P6SM SKC
     FM012100 34012KT P6SM SKC=

USA.gov is the U.S. government's official web portal to all federal, state and local government web resources and services.